sensor_id;sensor_type;location;lat;lon;timestamp;temperature;humidity
9385;DHT22;4732;49.340;10.886;2023-05-07T03:01:43;10.80;99.90
9385;DHT22;4732;49.340;10.886;2023-05-07T03:04:10;10.80;99.90
9385;DHT22;4732;49.340;10.886;2023-05-07T03:06:36;10.70;99.90
9385;DHT22;4732;49.340;10.886;2023-05-07T03:09:02;10.70;99.90
9385;DHT22;4732;49.340;10.886;2023-05-07T03:11:27;10.60;99.90
9385;DHT22;4732;49.340;10.886;2023-05-07T03:13:53;10.60;99.90
9385;DHT22;4732;49.340;10.886;2023-05-07T03:16:18;10.50;99.90
9385;DHT22;4732;49.340;10.886;2023-05-07T03:18:44;10.60;99.90
9385;DHT22;4732;49.340;10.886;2023-05-07T03:21:09;10.60;99.90
9385;DHT22;4732;49.340;10.886;2023-05-07T03:23:35;10.60;99.90
9385;DHT22;4732;49.340;10.886;2023-05-07T03:26:01;10.70;99.90
9385;DHT22;4732;49.340;10.886;2023-05-07T03:28:26;10.70;99.90
9385;DHT22;4732;49.340;10.886;2023-05-07T03:30:52;10.70;99.90
9385;DHT22;4732;49.340;10.886;2023-05-07T03:33:17;10.80;99.90
9385;DHT22;4732;49.340;10.886;2023-05-07T03:35:43;10.70;99.90
9385;DHT22;4732;49.340;10.886;2023-05-07T03:38:08;10.70;99.90
9385;DHT22;4732;49.340;10.886;2023-05-07T03:40:34;10.70;99.90
9385;DHT22;4732;49.340;10.886;2023-05-07T03:43:00;10.70;99.90
9385;DHT22;4732;49.340;10.886;2023-05-07T03:45:26;10.70;99.90
9385;DHT22;4732;49.340;10.886;2023-05-07T03:47:51;10.70;99.90
9385;DHT22;4732;49.340;10.886;2023-05-07T03:50:17;10.60;99.90
9385;DHT22;4732;49.340;10.886;2023-05-07T03:52:42;10.60;99.90
9385;DHT22;4732;49.340;10.886;2023-05-07T03:55:08;10.70;99.90
9385;DHT22;4732;49.340;10.886;2023-05-07T03:57:33;10.60;99.90
9385;DHT22;4732;49.340;10.886;2023-05-07T03:59:59;10.50;99.90
9385;DHT22;4732;49.340;10.886;2023-05-07T04:02:24;10.60;99.90
9385;DHT22;4732;49.340;10.886;2023-05-07T04:04:50;10.60;99.90
9385;DHT22;4732;49.340;10.886;2023-05-07T04:07:16;10.70;99.90
9385;DHT22;4732;49.340;10.886;2023-05-07T04:09:42;10.70;99.90
9385;DHT22;4732;49.340;10.886;2023-05-07T04:12:07;10.60;99.90
9385;DHT22;4732;49.340;10.886;2023-05-07T04:14:33;10.60;99.90
9385;DHT22;4732;49.340;10.886;2023-05-07T04:16:59;10.60;99.90
9385;DHT22;4732;49.340;10.886;2023-05-07T04:19:25;11.20;99.90
9385;DHT22;4732;49.340;10.886;2023-05-07T04:21:50;10.70;99.90
9385;DHT22;4732;49.340;10.886;2023-05-07T04:24:16;10.70;99.90
9385;DHT22;4732;49.340;10.886;2023-05-07T04:26:41;10.60;99.90
9385;DHT22;4732;49.340;10.886;2023-05-07T04:29:07;10.70;99.90
9385;DHT22;4732;49.340;10.886;2023-05-07T04:31:33;10.80;99.90
9385;DHT22;4732;49.340;10.886;2023-05-07T04:33:58;10.90;99.90
9385;DHT22;4732;49.340;10.886;2023-05-07T04:36:24;10.80;99.90
9385;DHT22;4732;49.340;10.886;2023-05-07T04:38:53;10.90;99.90
9385;DHT22;4732;49.340;10.886;2023-05-07T04:41:19;11.00;99.90
9385;DHT22;4732;49.340;10.886;2023-05-07T04:43:44;10.90;99.90
9385;DHT22;4732;49.340;10.886;2023-05-07T04:46:10;10.90;99.90
9385;DHT22;4732;49.340;10.886;2023-05-07T04:48:36;10.80;99.90
9385;DHT22;4732;49.340;10.886;2023-05-07T04:51:02;10.90;99.90
9385;DHT22;4732;49.340;10.886;2023-05-07T04:53:27;11.00;99.90
9385;DHT22;4732;49.340;10.886;2023-05-07T04:55:57;10.90;99.90
9385;DHT22;4732;49.340;10.886;2023-05-07T04:58:23;11.00;99.90
9385;DHT22;4732;49.340;10.886;2023-05-07T05:00:49;11.10;99.90
9385;DHT22;4732;49.340;10.886;2023-05-07T05:03:15;11.20;99.90
9385;DHT22;4732;49.340;10.886;2023-05-07T05:05:40;11.20;99.90
9385;DHT22;4732;49.340;10.886;2023-05-07T05:08:06;11.40;99.90
9385;DHT22;4732;49.340;10.886;2023-05-07T05:10:31;11.30;99.90
9385;DHT22;4732;49.340;10.886;2023-05-07T05:12:57;11.50;99.90
9385;DHT22;4732;49.340;10.886;2023-05-07T05:15:23;11.50;99.90
9385;DHT22;4732;49.340;10.886;2023-05-07T05:17:48;11.60;99.90
9385;DHT22;4732;49.340;10.886;2023-05-07T05:20:14;11.60;99.90
9385;DHT22;4732;49.340;10.886;2023-05-07T05:22:40;11.60;99.90
9385;DHT22;4732;49.340;10.886;2023-05-07T05:25:06;11.70;99.90
9385;DHT22;4732;49.340;10.886;2023-05-07T05:27:32;11.90;99.90
9385;DHT22;4732;49.340;10.886;2023-05-07T05:29:58;11.90;99.90
9385;DHT22;4732;49.340;10.886;2023-05-07T05:32:23;11.90;99.90
9385;DHT22;4732;49.340;10.886;2023-05-07T05:34:49;12.00;99.90
9385;DHT22;4732;49.340;10.886;2023-05-07T05:37:14;12.10;99.90
9385;DHT22;4732;49.340;10.886;2023-05-07T05:39:40;12.20;99.90
9385;DHT22;4732;49.340;10.886;2023-05-07T05:42:06;12.30;99.90
9385;DHT22;4732;49.340;10.886;2023-05-07T05:44:32;12.50;99.90
9385;DHT22;4732;49.340;10.886;2023-05-07T05:46:57;12.50;99.90
9385;DHT22;4732;49.340;10.886;2023-05-07T05:49:24;12.50;99.90
9385;DHT22;4732;49.340;10.886;2023-05-07T05:51:50;12.60;99.90
9385;DHT22;4732;49.340;10.886;2023-05-07T05:54:15;12.50;99.90
9385;DHT22;4732;49.340;10.886;2023-05-07T05:56:41;12.60;99.90
9385;DHT22;4732;49.340;10.886;2023-05-07T05:59:07;12.60;99.90
9385;DHT22;4732;49.340;10.886;2023-05-07T06:01:33;12.80;99.90
9385;DHT22;4732;49.340;10.886;2023-05-07T06:03:58;12.90;99.90
9385;DHT22;4732;49.340;10.886;2023-05-07T06:06:24;13.00;99.90
9385;DHT22;4732;49.340;10.886;2023-05-07T06:08:49;13.10;99.90
9385;DHT22;4732;49.340;10.886;2023-05-07T06:11:15;13.30;99.90
9385;DHT22;4732;49.340;10.886;2023-05-07T06:13:40;13.40;99.90
9385;DHT22;4732;49.340;10.886;2023-05-07T06:16:06;13.50;99.90
9385;DHT22;4732;49.340;10.886;2023-05-07T06:18:32;13.60;99.90
9385;DHT22;4732;49.340;10.886;2023-05-07T06:20:57;13.90;99.90
9385;DHT22;4732;49.340;10.886;2023-05-07T06:23:23;13.70;99.90
9385;DHT22;4732;49.340;10.886;2023-05-07T06:25:51;14.00;99.90
9385;DHT22;4732;49.340;10.886;2023-05-07T06:28:17;13.90;99.90
9385;DHT22;4732;49.340;10.886;2023-05-07T06:30:43;14.00;99.90
9385;DHT22;4732;49.340;10.886;2023-05-07T06:33:08;14.10;99.90
9385;DHT22;4732;49.340;10.886;2023-05-07T06:35:34;14.20;99.90
9385;DHT22;4732;49.340;10.886;2023-05-07T06:38:00;14.40;99.90
9385;DHT22;4732;49.340;10.886;2023-05-07T06:40:26;14.50;99.90
9385;DHT22;4732;49.340;10.886;2023-05-07T06:42:51;14.40;99.90
9385;DHT22;4732;49.340;10.886;2023-05-07T06:45:17;14.80;99.90
9385;DHT22;4732;49.340;10.886;2023-05-07T06:47:42;14.90;99.90
9385;DHT22;4732;49.340;10.886;2023-05-07T06:50:11;14.90;99.90
9385;DHT22;4732;49.340;10.886;2023-05-07T06:52:37;15.30;99.90
9385;DHT22;4732;49.340;10.886;2023-05-07T06:55:03;14.90;99.90
9385;DHT22;4732;49.340;10.886;2023-05-07T06:57:29;15.20;99.90
9385;DHT22;4732;49.340;10.886;2023-05-07T06:59:54;15.20;99.90
9385;DHT22;4732;49.340;10.886;2023-05-07T07:02:20;15.20;99.90
9385;DHT22;4732;49.340;10.886;2023-05-07T07:04:45;15.10;99.90
9385;DHT22;4732;49.340;10.886;2023-05-07T07:07:11;15.30;99.90
9385;DHT22;4732;49.340;10.886;2023-05-07T07:09:36;15.30;99.90
9385;DHT22;4732;49.340;10.886;2023-05-07T07:12:02;15.30;99.90
9385;DHT22;4732;49.340;10.886;2023-05-07T07:14:28;15.30;99.90
9385;DHT22;4732;49.340;10.886;2023-05-07T07:16:53;15.30;99.90
9385;DHT22;4732;49.340;10.886;2023-05-07T07:19:19;15.30;99.90
9385;DHT22;4732;49.340;10.886;2023-05-07T07:21:45;15.30;99.90
9385;DHT22;4732;49.340;10.886;2023-05-07T07:24:11;15.30;99.90
9385;DHT22;4732;49.340;10.886;2023-05-07T07:26:36;15.30;99.90
9385;DHT22;4732;49.340;10.886;2023-05-07T07:29:02;15.30;99.90
9385;DHT22;4732;49.340;10.886;2023-05-07T07:31:27;15.30;99.90
9385;DHT22;4732;49.340;10.886;2023-05-07T07:33:53;15.40;99.90
9385;DHT22;4732;49.340;10.886;2023-05-07T07:36:18;15.30;99.90
9385;DHT22;4732;49.340;10.886;2023-05-07T07:38:44;15.40;99.90
9385;DHT22;4732;49.340;10.886;2023-05-07T07:41:09;15.40;99.90
9385;DHT22;4732;49.340;10.886;2023-05-07T07:43:35;15.50;99.90
9385;DHT22;4732;49.340;10.886;2023-05-07T07:46:01;15.50;99.90
9385;DHT22;4732;49.340;10.886;2023-05-07T07:48:26;15.60;99.90
9385;DHT22;4732;49.340;10.886;2023-05-07T07:50:52;15.70;99.90
9385;DHT22;4732;49.340;10.886;2023-05-07T07:53:17;15.80;99.90
9385;DHT22;4732;49.340;10.886;2023-05-07T07:55:43;15.90;99.90
9385;DHT22;4732;49.340;10.886;2023-05-07T07:58:09;16.10;99.90
9385;DHT22;4732;49.340;10.886;2023-05-07T08:00:35;16.20;99.90
9385;DHT22;4732;49.340;10.886;2023-05-07T08:03:01;16.40;99.90
9385;DHT22;4732;49.340;10.886;2023-05-07T08:05:28;16.60;99.90
9385;DHT22;4732;49.340;10.886;2023-05-07T08:07:54;16.70;99.90
9385;DHT22;4732;49.340;10.886;2023-05-07T08:10:21;16.80;99.90
9385;DHT22;4732;49.340;10.886;2023-05-07T08:12:48;16.90;99.90
9385;DHT22;4732;49.340;10.886;2023-05-07T08:15:14;17.10;99.90
9385;DHT22;4732;49.340;10.886;2023-05-07T08:17:40;17.20;99.90
9385;DHT22;4732;49.340;10.886;2023-05-07T08:20:07;17.30;99.90
9385;DHT22;4732;49.340;10.886;2023-05-07T08:22:37;17.40;99.90
9385;DHT22;4732;49.340;10.886;2023-05-07T08:25:03;17.50;99.90
9385;DHT22;4732;49.340;10.886;2023-05-07T08:27:28;17.40;99.90
9385;DHT22;4732;49.340;10.886;2023-05-07T08:29:54;17.30;99.90
9385;DHT22;4732;49.340;10.886;2023-05-07T08:32:20;17.20;99.90
9385;DHT22;4732;49.340;10.886;2023-05-07T08:34:45;17.20;99.90
9385;DHT22;4732;49.340;10.886;2023-05-07T08:37:11;17.30;99.90
9385;DHT22;4732;49.340;10.886;2023-05-07T08:39:36;17.40;99.90
9385;DHT22;4732;49.340;10.886;2023-05-07T08:42:04;17.40;99.90
9385;DHT22;4732;49.340;10.886;2023-05-07T08:44:34;17.50;99.90
9385;DHT22;4732;49.340;10.886;2023-05-07T08:47:01;17.80;99.90
9385;DHT22;4732;49.340;10.886;2023-05-07T08:49:29;18.20;99.90
9385;DHT22;4732;49.340;10.886;2023-05-07T08:51:55;18.50;99.90
9385;DHT22;4732;49.340;10.886;2023-05-07T08:54:21;18.50;99.90
9385;DHT22;4732;49.340;10.886;2023-05-07T08:56:47;18.70;99.90
9385;DHT22;4732;49.340;10.886;2023-05-07T08:59:13;18.70;99.90
9385;DHT22;4732;49.340;10.886;2023-05-07T09:01:39;18.90;99.90
9385;DHT22;4732;49.340;10.886;2023-05-07T09:04:05;19.00;99.90
9385;DHT22;4732;49.340;10.886;2023-05-07T09:06:32;19.20;99.90
9385;DHT22;4732;49.340;10.886;2023-05-07T09:08:58;19.50;99.90
9385;DHT22;4732;49.340;10.886;2023-05-07T09:11:26;19.50;99.90
9385;DHT22;4732;49.340;10.886;2023-05-07T09:13:56;19.40;99.90
9385;DHT22;4732;49.340;10.886;2023-05-07T09:16:23;19.30;99.90
9385;DHT22;4732;49.340;10.886;2023-05-07T09:18:53;19.40;99.90
9385;DHT22;4732;49.340;10.886;2023-05-07T09:21:20;19.40;99.90
9385;DHT22;4732;49.340;10.886;2023-05-07T09:23:51;19.70;99.90
9385;DHT22;4732;49.340;10.886;2023-05-07T09:26:17;20.00;99.90
9385;DHT22;4732;49.340;10.886;2023-05-07T09:28:43;20.00;99.90
9385;DHT22;4732;49.340;10.886;2023-05-07T09:31:10;20.00;99.90
9385;DHT22;4732;49.340;10.886;2023-05-07T09:33:37;20.30;99.90
9385;DHT22;4732;49.340;10.886;2023-05-07T09:36:07;20.50;99.90
9385;DHT22;4732;49.340;10.886;2023-05-07T09:38:33;20.70;99.90
9385;DHT22;4732;49.340;10.886;2023-05-07T09:41:11;20.60;99.90
9385;DHT22;4732;49.340;10.886;2023-05-07T09:43:38;20.40;99.90
9385;DHT22;4732;49.340;10.886;2023-05-07T09:46:16;20.20;99.90
9385;DHT22;4732;49.340;10.886;2023-05-07T09:48:44;20.20;99.90
9385;DHT22;4732;49.340;10.886;2023-05-07T09:51:22;20.50;99.90
9385;DHT22;4732;49.340;10.886;2023-05-07T09:53:53;20.40;99.90
9385;DHT22;4732;49.340;10.886;2023-05-07T09:56:19;20.40;99.90
9385;DHT22;4732;49.340;10.886;2023-05-07T09:58:45;20.60;99.90
9385;DHT22;4732;49.340;10.886;2023-05-07T10:01:12;20.70;99.90
9385;DHT22;4732;49.340;10.886;2023-05-07T10:03:40;20.80;99.90
9385;DHT22;4732;49.340;10.886;2023-05-07T10:06:08;20.90;99.90
9385;DHT22;4732;49.340;10.886;2023-05-07T10:08:35;20.80;99.90
9385;DHT22;4732;49.340;10.886;2023-05-07T10:11:01;20.60;99.90
9385;DHT22;4732;49.340;10.886;2023-05-07T10:13:27;20.40;99.90
9385;DHT22;4732;49.340;10.886;2023-05-07T10:15:52;20.50;99.90
9385;DHT22;4732;49.340;10.886;2023-05-07T10:18:19;20.70;99.90
9385;DHT22;4732;49.340;10.886;2023-05-07T10:20:48;20.90;99.90
9385;DHT22;4732;49.340;10.886;2023-05-07T10:23:21;21.20;99.90
9385;DHT22;4732;49.340;10.886;2023-05-07T10:25:48;21.40;99.90
9385;DHT22;4732;49.340;10.886;2023-05-07T10:28:14;21.70;99.90
9385;DHT22;4732;49.340;10.886;2023-05-07T10:33:17;22.20;99.90
9385;DHT22;4732;49.340;10.886;2023-05-07T10:35:46;22.40;99.90
9385;DHT22;4732;49.340;10.886;2023-05-07T10:38:13;22.50;99.90
9385;DHT22;4732;49.340;10.886;2023-05-07T10:40:39;22.50;99.90
9385;DHT22;4732;49.340;10.886;2023-05-07T10:43:07;22.60;99.90
9385;DHT22;4732;49.340;10.886;2023-05-07T10:45:33;22.50;99.90
9385;DHT22;4732;49.340;10.886;2023-05-07T10:48:17;22.50;99.90
9385;DHT22;4732;49.340;10.886;2023-05-07T10:50:44;22.50;99.90
9385;DHT22;4732;49.340;10.886;2023-05-07T10:53:21;22.50;99.90
9385;DHT22;4732;49.340;10.886;2023-05-07T10:55:49;22.60;99.90
9385;DHT22;4732;49.340;10.886;2023-05-07T11:00:47;22.90;99.90
9385;DHT22;4732;49.340;10.886;2023-05-07T11:03:13;23.20;99.90
9385;DHT22;4732;49.340;10.886;2023-05-07T11:05:40;23.20;99.90
9385;DHT22;4732;49.340;10.886;2023-05-07T11:08:06;23.40;99.90
9385;DHT22;4732;49.340;10.886;2023-05-07T11:10:52;23.40;99.90
9385;DHT22;4732;49.340;10.886;2023-05-07T11:13:40;23.10;99.90
9385;DHT22;4732;49.340;10.886;2023-05-07T11:16:05;23.60;99.90
9385;DHT22;4732;49.340;10.886;2023-05-07T11:18:55;23.90;99.90
9385;DHT22;4732;49.340;10.886;2023-05-07T11:21:35;23.80;99.90
9385;DHT22;4732;49.340;10.886;2023-05-07T11:24:01;23.90;99.90
9385;DHT22;4732;49.340;10.886;2023-05-07T11:26:40;23.90;99.90
9385;DHT22;4732;49.340;10.886;2023-05-07T11:29:15;24.00;99.90
9385;DHT22;4732;49.340;10.886;2023-05-07T11:31:41;23.90;99.90
9385;DHT22;4732;49.340;10.886;2023-05-07T11:34:06;24.00;99.90
9385;DHT22;4732;49.340;10.886;2023-05-07T11:36:33;23.90;99.90
9385;DHT22;4732;49.340;10.886;2023-05-07T11:38:58;24.20;99.90
9385;DHT22;4732;49.340;10.886;2023-05-07T11:41:34;24.60;99.90
9385;DHT22;4732;49.340;10.886;2023-05-07T11:44:01;24.80;99.90
9385;DHT22;4732;49.340;10.886;2023-05-07T11:46:27;25.00;99.90
9385;DHT22;4732;49.340;10.886;2023-05-07T11:48:53;25.00;99.90
9385;DHT22;4732;49.340;10.886;2023-05-07T11:51:20;25.00;99.90
9385;DHT22;4732;49.340;10.886;2023-05-07T11:53:46;25.00;99.90
9385;DHT22;4732;49.340;10.886;2023-05-07T11:56:13;25.00;99.90
9385;DHT22;4732;49.340;10.886;2023-05-07T11:58:40;25.10;99.90
9385;DHT22;4732;49.340;10.886;2023-05-07T12:01:08;25.20;99.90
9385;DHT22;4732;49.340;10.886;2023-05-07T12:03:35;25.40;99.90
9385;DHT22;4732;49.340;10.886;2023-05-07T12:06:05;25.40;99.90
9385;DHT22;4732;49.340;10.886;2023-05-07T12:08:30;25.40;99.90
9385;DHT22;4732;49.340;10.886;2023-05-07T12:10:56;25.10;99.90
9385;DHT22;4732;49.340;10.886;2023-05-07T12:13:25;24.90;99.80
9385;DHT22;4732;49.340;10.886;2023-05-07T12:15:55;24.60;99.90
9385;DHT22;4732;49.340;10.886;2023-05-07T12:18:21;24.90;99.90
9385;DHT22;4732;49.340;10.886;2023-05-07T12:20:48;24.80;99.90
9385;DHT22;4732;49.340;10.886;2023-05-07T12:23:14;25.10;99.90
9385;DHT22;4732;49.340;10.886;2023-05-07T12:28:13;25.30;99.00
9385;DHT22;4732;49.340;10.886;2023-05-07T12:30:40;25.20;99.90
9385;DHT22;4732;49.340;10.886;2023-05-07T12:33:07;25.10;99.10
9385;DHT22;4732;49.340;10.886;2023-05-07T12:35:38;25.40;99.90
9385;DHT22;4732;49.340;10.886;2023-05-07T12:38:11;25.60;99.90
9385;DHT22;4732;49.340;10.886;2023-05-07T12:40:50;25.80;99.90
9385;DHT22;4732;49.340;10.886;2023-05-07T12:43:25;25.90;99.50
9385;DHT22;4732;49.340;10.886;2023-05-07T12:45:51;25.90;98.50
9385;DHT22;4732;49.340;10.886;2023-05-07T12:48:19;26.20;99.00
9385;DHT22;4732;49.340;10.886;2023-05-07T12:50:48;26.40;98.40
9385;DHT22;4732;49.340;10.886;2023-05-07T12:53:14;26.50;97.60
9385;DHT22;4732;49.340;10.886;2023-05-07T12:55:44;26.70;97.10
9385;DHT22;4732;49.340;10.886;2023-05-07T13:00:42;26.00;96.50
9385;DHT22;4732;49.340;10.886;2023-05-07T13:03:08;26.10;97.90
9385;DHT22;4732;49.340;10.886;2023-05-07T13:05:34;26.30;97.10
9385;DHT22;4732;49.340;10.886;2023-05-07T13:08:00;26.40;97.50
9385;DHT22;4732;49.340;10.886;2023-05-07T13:10:27;26.90;95.60
9385;DHT22;4732;49.340;10.886;2023-05-07T13:12:52;26.90;95.30
9385;DHT22;4732;49.340;10.886;2023-05-07T13:15:18;26.60;95.80
9385;DHT22;4732;49.340;10.886;2023-05-07T13:17:44;26.40;95.20
9385;DHT22;4732;49.340;10.886;2023-05-07T13:20:10;26.00;95.90
9385;DHT22;4732;49.340;10.886;2023-05-07T13:22:37;25.90;95.80
9385;DHT22;4732;49.340;10.886;2023-05-07T13:25:02;26.10;96.20
9385;DHT22;4732;49.340;10.886;2023-05-07T13:27:28;26.30;96.90
9385;DHT22;4732;49.340;10.886;2023-05-07T13:29:56;26.60;96.80
9385;DHT22;4732;49.340;10.886;2023-05-07T13:32:21;27.00;94.10
9385;DHT22;4732;49.340;10.886;2023-05-07T13:34:47;26.90;91.90
9385;DHT22;4732;49.340;10.886;2023-05-07T13:37:12;27.00;93.70
9385;DHT22;4732;49.340;10.886;2023-05-07T13:39:38;27.20;94.50
9385;DHT22;4732;49.340;10.886;2023-05-07T13:42:03;27.30;94.00
9385;DHT22;4732;49.340;10.886;2023-05-07T13:44:29;27.50;94.40
9385;DHT22;4732;49.340;10.886;2023-05-07T13:46:54;26.90;93.70
9385;DHT22;4732;49.340;10.886;2023-05-07T13:49:20;26.10;96.40
9385;DHT22;4732;49.340;10.886;2023-05-07T13:51:45;25.50;96.40
9385;DHT22;4732;49.340;10.886;2023-05-07T13:54:11;25.20;96.70
9385;DHT22;4732;49.340;10.886;2023-05-07T13:56:37;24.90;96.60
9385;DHT22;4732;49.340;10.886;2023-05-07T13:59:02;24.70;96.30
9385;DHT22;4732;49.340;10.886;2023-05-07T14:01:28;24.50;97.60
9385;DHT22;4732;49.340;10.886;2023-05-07T14:03:53;24.30;96.90
9385;DHT22;4732;49.340;10.886;2023-05-07T14:06:19;24.00;97.70
9385;DHT22;4732;49.340;10.886;2023-05-07T14:08:45;23.90;97.50
9385;DHT22;4732;49.340;10.886;2023-05-07T14:11:10;23.70;97.80
9385;DHT22;4732;49.340;10.886;2023-05-07T14:13:36;23.50;98.40
9385;DHT22;4732;49.340;10.886;2023-05-07T14:16:01;23.40;98.50
9385;DHT22;4732;49.340;10.886;2023-05-07T14:18:27;23.30;99.40
9385;DHT22;4732;49.340;10.886;2023-05-07T14:20:54;23.20;98.80
9385;DHT22;4732;49.340;10.886;2023-05-07T14:23:19;23.20;99.00
9385;DHT22;4732;49.340;10.886;2023-05-07T14:25:47;23.20;99.20
9385;DHT22;4732;49.340;10.886;2023-05-07T14:28:13;23.20;99.00
9385;DHT22;4732;49.340;10.886;2023-05-07T14:30:38;23.20;99.60
9385;DHT22;4732;49.340;10.886;2023-05-07T14:33:04;23.10;99.00
9385;DHT22;4732;49.340;10.886;2023-05-07T14:35:30;23.10;99.20
9385;DHT22;4732;49.340;10.886;2023-05-07T14:37:55;23.10;99.90
9385;DHT22;4732;49.340;10.886;2023-05-07T14:40:21;23.10;99.50
9385;DHT22;4732;49.340;10.886;2023-05-07T14:42:46;23.00;99.10
9385;DHT22;4732;49.340;10.886;2023-05-07T14:45:12;23.00;99.40
9385;DHT22;4732;49.340;10.886;2023-05-07T14:47:38;23.00;99.20
9385;DHT22;4732;49.340;10.886;2023-05-07T14:50:04;23.00;98.70
9385;DHT22;4732;49.340;10.886;2023-05-07T14:52:29;23.10;99.20
9385;DHT22;4732;49.340;10.886;2023-05-07T14:54:55;23.20;98.80
9385;DHT22;4732;49.340;10.886;2023-05-07T14:57:20;23.30;99.50
9385;DHT22;4732;49.340;10.886;2023-05-07T14:59:46;23.40;99.80
9385;DHT22;4732;49.340;10.886;2023-05-07T15:02:12;23.60;99.40
9385;DHT22;4732;49.340;10.886;2023-05-07T15:04:38;23.80;98.30
9385;DHT22;4732;49.340;10.886;2023-05-07T15:07:13;23.90;98.20
9385;DHT22;4732;49.340;10.886;2023-05-07T15:09:41;23.90;98.50
9385;DHT22;4732;49.340;10.886;2023-05-07T15:12:07;23.90;98.70
9385;DHT22;4732;49.340;10.886;2023-05-07T15:14:33;24.00;98.50
9385;DHT22;4732;49.340;10.886;2023-05-07T15:16:58;24.10;98.20
9385;DHT22;4732;49.340;10.886;2023-05-07T15:19:24;24.20;97.00
9385;DHT22;4732;49.340;10.886;2023-05-07T15:21:54;24.40;97.50
9385;DHT22;4732;49.340;10.886;2023-05-07T15:24:20;24.30;96.60
9385;DHT22;4732;49.340;10.886;2023-05-07T15:26:46;24.40;97.00
9385;DHT22;4732;49.340;10.886;2023-05-07T15:29:11;24.40;97.60
9385;DHT22;4732;49.340;10.886;2023-05-07T15:31:37;24.20;97.40
9385;DHT22;4732;49.340;10.886;2023-05-07T15:34:05;24.10;98.90
9385;DHT22;4732;49.340;10.886;2023-05-07T15:36:31;23.90;98.90
9385;DHT22;4732;49.340;10.886;2023-05-07T15:38:57;23.70;99.00
9385;DHT22;4732;49.340;10.886;2023-05-07T15:41:22;23.50;99.40
9385;DHT22;4732;49.340;10.886;2023-05-07T15:43:50;23.50;99.90
9385;DHT22;4732;49.340;10.886;2023-05-07T15:46:20;23.30;99.90
9385;DHT22;4732;49.340;10.886;2023-05-07T15:48:46;23.30;99.90
9385;DHT22;4732;49.340;10.886;2023-05-07T15:51:12;23.50;99.80
9385;DHT22;4732;49.340;10.886;2023-05-07T15:53:38;23.40;99.90
9385;DHT22;4732;49.340;10.886;2023-05-07T15:56:05;23.60;99.90
9385;DHT22;4732;49.340;10.886;2023-05-07T15:58:31;23.60;99.90
9385;DHT22;4732;49.340;10.886;2023-05-07T16:00:57;23.50;99.90
9385;DHT22;4732;49.340;10.886;2023-05-07T16:03:22;23.40;99.70
9385;DHT22;4732;49.340;10.886;2023-05-07T16:05:48;23.20;99.90
9385;DHT22;4732;49.340;10.886;2023-05-07T16:08:13;23.00;99.90
9385;DHT22;4732;49.340;10.886;2023-05-07T16:10:39;22.90;99.90
9385;DHT22;4732;49.340;10.886;2023-05-07T16:13:05;22.80;99.90
9385;DHT22;4732;49.340;10.886;2023-05-07T16:15:31;22.60;99.90
9385;DHT22;4732;49.340;10.886;2023-05-07T16:17:56;22.60;99.90
9385;DHT22;4732;49.340;10.886;2023-05-07T16:20:26;22.40;99.90
9385;DHT22;4732;49.340;10.886;2023-05-07T16:22:54;22.40;99.90
9385;DHT22;4732;49.340;10.886;2023-05-07T16:25:19;22.40;99.90
9385;DHT22;4732;49.340;10.886;2023-05-07T16:27:45;22.30;99.90
9385;DHT22;4732;49.340;10.886;2023-05-07T16:30:11;22.30;99.90
9385;DHT22;4732;49.340;10.886;2023-05-07T16:32:36;22.30;99.90
9385;DHT22;4732;49.340;10.886;2023-05-07T16:35:02;22.10;99.90
9385;DHT22;4732;49.340;10.886;2023-05-07T16:37:28;22.00;99.90
9385;DHT22;4732;49.340;10.886;2023-05-07T16:39:53;21.90;99.90
9385;DHT22;4732;49.340;10.886;2023-05-07T16:42:20;21.80;99.90
9385;DHT22;4732;49.340;10.886;2023-05-07T16:44:46;21.70;99.90
9385;DHT22;4732;49.340;10.886;2023-05-07T16:47:11;21.80;99.90
9385;DHT22;4732;49.340;10.886;2023-05-07T16:49:37;21.60;99.90
9385;DHT22;4732;49.340;10.886;2023-05-07T16:52:02;21.50;99.90
9385;DHT22;4732;49.340;10.886;2023-05-07T16:54:29;21.40;99.90
9385;DHT22;4732;49.340;10.886;2023-05-07T16:56:55;21.40;99.90
9385;DHT22;4732;49.340;10.886;2023-05-07T16:59:21;21.40;99.90
9385;DHT22;4732;49.340;10.886;2023-05-07T17:01:47;21.30;99.90
9385;DHT22;4732;49.340;10.886;2023-05-07T17:04:13;21.30;99.90
9385;DHT22;4732;49.340;10.886;2023-05-07T17:06:38;21.30;99.90
9385;DHT22;4732;49.340;10.886;2023-05-07T17:09:04;21.20;99.90
9385;DHT22;4732;49.340;10.886;2023-05-07T17:11:30;21.10;99.90
9385;DHT22;4732;49.340;10.886;2023-05-07T17:13:58;21.10;99.90
9385;DHT22;4732;49.340;10.886;2023-05-07T17:16:23;21.00;99.90
9385;DHT22;4732;49.340;10.886;2023-05-07T17:18:49;21.00;99.90
9385;DHT22;4732;49.340;10.886;2023-05-07T17:21:14;20.90;99.90
9385;DHT22;4732;49.340;10.886;2023-05-07T17:23:40;20.90;99.90
9385;DHT22;4732;49.340;10.886;2023-05-07T17:26:13;20.90;99.90
9385;DHT22;4732;49.340;10.886;2023-05-07T17:28:38;20.90;99.90
9385;DHT22;4732;49.340;10.886;2023-05-07T17:31:04;20.80;99.90
9385;DHT22;4732;49.340;10.886;2023-05-07T17:33:30;20.80;99.90
9385;DHT22;4732;49.340;10.886;2023-05-07T17:35:55;20.70;99.90
9385;DHT22;4732;49.340;10.886;2023-05-07T17:38:21;20.70;99.90
9385;DHT22;4732;49.340;10.886;2023-05-07T17:40:46;20.70;99.90
9385;DHT22;4732;49.340;10.886;2023-05-07T17:43:13;20.70;99.90
9385;DHT22;4732;49.340;10.886;2023-05-07T17:45:39;20.60;99.90
9385;DHT22;4732;49.340;10.886;2023-05-07T17:48:04;20.60;99.90
9385;DHT22;4732;49.340;10.886;2023-05-07T17:50:30;20.50;99.90
9385;DHT22;4732;49.340;10.886;2023-05-07T17:52:55;20.40;99.90
9385;DHT22;4732;49.340;10.886;2023-05-07T17:55:21;20.40;99.90
9385;DHT22;4732;49.340;10.886;2023-05-07T17:57:47;20.30;99.90
9385;DHT22;4732;49.340;10.886;2023-05-07T18:00:13;20.30;99.90
9385;DHT22;4732;49.340;10.886;2023-05-07T18:02:38;20.30;99.90
9385;DHT22;4732;49.340;10.886;2023-05-07T18:05:06;20.30;99.90
9385;DHT22;4732;49.340;10.886;2023-05-07T18:07:32;20.30;99.90
9385;DHT22;4732;49.340;10.886;2023-05-07T18:09:57;20.20;99.90
9385;DHT22;4732;49.340;10.886;2023-05-07T18:12:23;20.10;99.90
9385;DHT22;4732;49.340;10.886;2023-05-07T18:14:48;20.00;99.90
9385;DHT22;4732;49.340;10.886;2023-05-07T18:17:15;20.10;99.90
9385;DHT22;4732;49.340;10.886;2023-05-07T18:19:41;19.90;99.90
9385;DHT22;4732;49.340;10.886;2023-05-07T18:22:07;19.80;99.90
9385;DHT22;4732;49.340;10.886;2023-05-07T18:24:33;19.80;99.90
9385;DHT22;4732;49.340;10.886;2023-05-07T18:26:58;19.70;99.90
9385;DHT22;4732;49.340;10.886;2023-05-07T18:29:24;19.70;99.90
9385;DHT22;4732;49.340;10.886;2023-05-07T18:31:49;19.60;99.90
9385;DHT22;4732;49.340;10.886;2023-05-07T18:34:15;19.60;99.90
9385;DHT22;4732;49.340;10.886;2023-05-07T18:36:41;19.50;99.90
9385;DHT22;4732;49.340;10.886;2023-05-07T18:39:06;19.50;99.90
9385;DHT22;4732;49.340;10.886;2023-05-07T18:41:33;19.40;99.90
9385;DHT22;4732;49.340;10.886;2023-05-07T18:43:59;19.40;99.90
9385;DHT22;4732;49.340;10.886;2023-05-07T18:46:25;19.40;99.90
9385;DHT22;4732;49.340;10.886;2023-05-07T18:48:50;19.30;99.90
9385;DHT22;4732;49.340;10.886;2023-05-07T18:51:16;19.20;99.90